createdAt,value
2022-12-11T06:16:53.609Z,90.00
2022-12-11T06:26:54.691Z,90.00
2022-12-11T06:36:53.706Z,90.00
2022-12-11T06:46:53.696Z,90.00
2022-12-11T06:56:53.685Z,90.00
2022-12-11T07:06:53.761Z,90.00
2022-12-11T07:16:53.761Z,90.00
2022-12-11T07:26:53.801Z,90.00
2022-12-11T07:36:53.785Z,90.00
2022-12-11T07:46:53.751Z,90.00
2022-12-11T07:56:54.147Z,90.00
2022-12-11T08:06:53.958Z,90.00
2022-12-11T08:16:54.063Z,90.00
2022-12-11T08:26:54.108Z,90.00
2022-12-11T08:36:54.145Z,90.00
2022-12-11T08:46:54.263Z,90.00
2022-12-11T08:56:57.946Z,90.00
2022-12-11T09:06:54.119Z,90.00
2022-12-11T09:16:54.871Z,90.00
2022-12-11T09:26:54.110Z,90.00
2022-12-11T09:36:54.081Z,90.00
2022-12-11T09:46:54.181Z,90.00
2022-12-11T09:56:54.148Z,90.00
2022-12-11T10:06:54.151Z,90.00
2022-12-11T10:16:54.190Z,90.00
2022-12-11T10:26:54.196Z,149.32
2022-12-11T10:37:00.190Z,157.70
2022-12-11T10:46:54.090Z,135.04
2022-12-11T10:56:54.026Z,124.01
2022-12-11T11:06:54.058Z,135.26
2022-12-11T11:16:54.165Z,175.62
2022-12-11T11:27:12.883Z,109.91
2022-12-11T11:36:54.128Z,91.72
2022-12-11T11:46:53.994Z,92.02
2022-12-11T11:56:54.058Z,122.49
2022-12-11T12:06:54.031Z,107.90
2022-12-11T12:16:54.176Z,106.10
2022-12-11T12:26:54.105Z,135.48
2022-12-11T12:36:54.139Z,126.49
2022-12-11T12:46:54.056Z,94.57
2022-12-11T12:56:54.074Z,90.00
2022-12-11T13:06:54.159Z,90.00
2022-12-11T13:16:54.223Z,177.41
2022-12-11T13:26:54.215Z,151.43
2022-12-11T13:36:54.247Z,144.10
2022-12-11T13:46:54.210Z,180.00
2022-12-11T13:56:54.118Z,180.00
2022-12-11T14:06:54.180Z,180.00
2022-12-11T14:16:54.263Z,180.00
2022-12-11T14:26:54.106Z,180.00
2022-12-11T14:36:54.226Z,180.00
2022-12-11T14:46:54.252Z,180.00
2022-12-11T14:56:54.358Z,180.00
2022-12-11T15:06:54.247Z,180.00
2022-12-11T15:16:54.207Z,180.00
2022-12-11T15:26:54.247Z,180.00
2022-12-11T15:36:54.151Z,180.00
2022-12-11T15:46:54.311Z,180.00
2022-12-11T15:56:54.232Z,180.00
2022-12-11T16:06:54.245Z,175.89
2022-12-11T16:16:54.367Z,90.00
2022-12-11T16:26:54.237Z,90.00
2022-12-11T16:36:54.281Z,90.00
2022-12-11T16:46:54.268Z,90.00
2022-12-11T16:56:54.181Z,130.05
2022-12-11T17:06:54.323Z,152.36
2022-12-11T17:16:54.171Z,180.00
2022-12-11T17:26:54.250Z,168.51
2022-12-11T17:36:54.362Z,90.00
2022-12-11T17:46:54.325Z,90.00
2022-12-11T17:56:54.233Z,90.00
2022-12-11T18:06:54.258Z,90.00
2022-12-11T18:16:54.187Z,90.00
2022-12-11T18:26:54.313Z,90.00
2022-12-11T18:36:54.181Z,90.00
2022-12-11T18:46:54.315Z,90.00
2022-12-11T18:56:54.314Z,90.00
2022-12-11T19:06:54.372Z,90.00
2022-12-11T19:16:54.705Z,90.00
